createdAt,value
2018-12-06T00:00:51.099Z,1013.81
2018-12-06T00:01:51.064Z,1013.76
2018-12-06T00:02:51.032Z,1013.75
2018-12-06T00:03:50.999Z,1013.74
2018-12-06T00:04:50.966Z,1013.75
2018-12-06T00:06:33.284Z,1013.75
2018-12-06T00:07:33.047Z,1013.67
2018-12-06T00:08:33.013Z,1013.69
2018-12-06T00:09:32.987Z,1013.66
2018-12-06T00:10:32.950Z,1013.57
2018-12-06T00:11:32.915Z,1013.71
2018-12-06T00:12:32.887Z,1013.63
2018-12-06T00:13:32.853Z,1013.65
2018-12-06T00:14:32.820Z,1013.64
2018-12-06T00:15:32.791Z,1013.51
2018-12-06T00:16:32.753Z,1013.45
2018-12-06T00:17:32.726Z,1013.59
2018-12-06T00:18:32.689Z,1013.58
2018-12-06T00:19:32.655Z,1013.55
2018-12-06T00:20:32.629Z,1013.50
2018-12-06T00:21:32.594Z,1013.46
2018-12-06T00:22:32.559Z,1013.50
2018-12-06T00:23:32.525Z,1013.43
2018-12-06T00:24:32.492Z,1013.42
2018-12-06T00:25:32.477Z,1013.38
2018-12-06T00:26:32.430Z,1013.43
2018-12-06T00:27:32.394Z,1013.38
2018-12-06T00:28:32.412Z,1013.31
2018-12-06T00:29:32.532Z,1013.32
2018-12-06T00:31:14.646Z,1013.39
2018-12-06T00:32:14.412Z,1013.29
2018-12-06T00:33:14.579Z,1013.31
2018-12-06T00:34:14.348Z,1013.23
2018-12-06T00:35:14.320Z,1013.28
2018-12-06T00:36:14.281Z,1013.23
2018-12-06T00:37:14.251Z,1013.25
2018-12-06T00:38:14.215Z,1013.18
2018-12-06T00:39:14.183Z,1013.20
2018-12-06T00:40:14.149Z,1012.99
2018-12-06T00:41:14.116Z,1013.10
2018-12-06T00:42:14.083Z,1013.19
2018-12-06T00:43:14.050Z,1013.14
2018-12-06T00:44:14.017Z,1013.08
2018-12-06T00:45:13.985Z,1013.18
2018-12-06T00:46:14.155Z,1013.18
2018-12-06T00:47:13.922Z,1013.11
2018-12-06T00:48:13.891Z,1013.10
2018-12-06T00:49:13.853Z,1013.15
2018-12-06T00:50:13.822Z,1013.20
2018-12-06T00:51:13.788Z,1013.15
2018-12-06T00:52:13.754Z,1013.14
2018-12-06T00:53:13.724Z,1013.03
2018-12-06T00:54:13.691Z,1013.12
2018-12-06T00:56:13.639Z,1013.05
2018-12-06T00:57:13.593Z,1013.05
2018-12-06T00:58:13.569Z,1013.06
2018-12-06T00:59:13.527Z,1013.03
2018-12-06T01:00:13.494Z,1012.89
2018-12-06T01:01:13.471Z,1012.86
2018-12-06T01:02:13.433Z,1012.83
2018-12-06T01:03:13.917Z,1012.91
2018-12-06T01:04:13.377Z,1012.82
2018-12-06T01:05:13.343Z,1012.78
2018-12-06T01:06:13.504Z,1012.77
2018-12-06T01:07:13.267Z,1012.70
2018-12-06T01:08:13.249Z,1012.76
2018-12-06T01:09:13.210Z,1012.80
2018-12-06T01:11:13.136Z,1012.63
2018-12-06T01:12:13.110Z,1012.84
2018-12-06T01:13:13.070Z,1012.79
2018-12-06T01:14:13.048Z,1012.58
2018-12-06T01:15:13.004Z,1012.78
2018-12-06T01:16:13.186Z,1012.77
2018-12-06T01:17:13.145Z,1012.75
2018-12-06T01:18:13.126Z,1012.66
2018-12-06T01:19:13.077Z,1012.64
2018-12-06T01:21:12.819Z,1012.62
2018-12-06T01:22:12.790Z,1012.61
2018-12-06T01:23:12.745Z,1012.36
2018-12-06T01:25:12.690Z,1012.53
2018-12-06T01:26:12.659Z,1012.63
2018-12-06T01:27:12.616Z,1012.54
2018-12-06T01:28:12.598Z,1012.59
2018-12-06T01:29:12.562Z,1012.45
2018-12-06T01:30:12.521Z,1012.47
2018-12-06T01:31:12.501Z,1012.66
2018-12-06T01:33:12.738Z,1012.44
2018-12-06T01:34:12.398Z,1012.46
2018-12-06T01:35:12.359Z,1012.52
2018-12-06T01:36:12.321Z,1012.42
2018-12-06T01:37:12.302Z,1012.50
2018-12-06T01:38:12.260Z,1012.56
2018-12-06T01:39:12.242Z,1012.59
2018-12-06T01:40:12.193Z,1012.63
2018-12-06T01:41:12.161Z,1012.59
2018-12-06T01:42:12.676Z,1012.54
2018-12-06T01:43:12.110Z,1012.43
2018-12-06T01:44:12.075Z,1012.54
2018-12-06T01:45:12.049Z,1012.59
2018-12-06T01:46:11.999Z,1012.59
2018-12-06T01:47:11.979Z,1012.57
2018-12-06T01:48:12.136Z,1012.50
2018-12-06T01:49:12.307Z,1012.58
2018-12-06T01:50:11.883Z,1012.55
2018-12-06T01:51:12.052Z,1012.57
2018-12-06T01:52:11.816Z,1012.48
2018-12-06T01:53:11.786Z,1012.50
2018-12-06T01:54:11.945Z,1012.47
2018-12-06T01:55:11.723Z,1012.36
2018-12-06T01:56:11.690Z,1012.41
2018-12-06T01:57:11.961Z,1012.31
2018-12-06T01:58:11.623Z,1012.30
2018-12-06T01:59:11.591Z,1012.25
2018-12-06T02:00:11.558Z,1012.33
2018-12-06T02:01:11.526Z,1012.25
2018-12-06T02:02:11.493Z,1012.26
2018-12-06T02:03:11.486Z,1012.26
2018-12-06T02:05:11.588Z,1012.26
2018-12-06T02:06:11.363Z,1012.23
2018-12-06T02:07:11.324Z,1012.23
2018-12-06T02:08:11.299Z,1012.20
2018-12-06T02:09:11.271Z,1012.21
2018-12-06T02:10:11.247Z,1012.25
2018-12-06T02:11:11.405Z,1012.16
2018-12-06T02:12:11.161Z,1012.15
2018-12-06T02:13:11.343Z,1012.15
2018-12-06T02:14:11.099Z,1012.17
2018-12-06T02:15:11.065Z,1012.15
2018-12-06T02:16:11.045Z,1012.13
2018-12-06T02:17:11.416Z,1012.06
2018-12-06T02:18:11.170Z,1011.97
2018-12-06T02:20:10.914Z,1011.94
2018-12-06T02:21:11.393Z,1012.00
2018-12-06T02:22:10.853Z,1011.96
2018-12-06T02:23:10.818Z,1011.88
2018-12-06T02:24:11.180Z,1011.89
2018-12-06T02:25:10.755Z,1011.89
2018-12-06T02:26:11.030Z,1011.82
2018-12-06T02:27:10.681Z,1011.91
2018-12-06T02:28:10.650Z,1011.87
2018-12-06T02:29:10.631Z,1011.85
2018-12-06T02:30:10.595Z,1011.83
2018-12-06T02:31:10.562Z,1011.74
2018-12-06T02:33:10.504Z,1011.73
2018-12-06T02:34:10.454Z,1011.78
2018-12-06T02:35:10.425Z,1011.73
2018-12-06T02:36:10.402Z,1011.74
2018-12-06T02:37:10.675Z,1011.69
2018-12-06T02:38:10.340Z,1011.70
2018-12-06T02:39:10.305Z,1011.74
2018-12-06T02:41:10.230Z,1011.53
2018-12-06T02:42:10.208Z,1011.56
2018-12-06T02:43:10.179Z,1011.56
2018-12-06T02:44:10.142Z,1011.50
2018-12-06T02:45:10.418Z,1011.46
2018-12-06T02:46:10.079Z,1011.47
2018-12-06T02:47:10.047Z,1011.40
2018-12-06T02:48:10.021Z,1011.47
2018-12-06T02:49:10.290Z,1011.43
2018-12-06T02:51:09.916Z,1011.30
2018-12-06T02:52:09.889Z,1011.31
2018-12-06T02:53:09.855Z,1011.31
2018-12-06T02:54:09.811Z,1011.26
2018-12-06T02:55:09.792Z,1011.25
2018-12-06T02:56:09.756Z,1011.25
2018-12-06T02:57:10.030Z,1011.20
2018-12-06T02:58:09.692Z,1011.23
2018-12-06T02:59:09.647Z,1011.08
2018-12-06T03:00:09.628Z,1011.14
2018-12-06T03:01:09.614Z,1011.11
2018-12-06T03:02:09.561Z,1011.00
2018-12-06T03:03:09.732Z,1011.03
2018-12-06T03:04:09.695Z,1010.82
2018-12-06T03:05:09.771Z,1011.00
2018-12-06T03:06:09.434Z,1011.04
2018-12-06T03:07:09.386Z,1010.93
2018-12-06T03:08:09.356Z,1010.99
2018-12-06T03:09:09.340Z,1011.02
2018-12-06T03:10:09.307Z,1011.03
2018-12-06T03:11:09.471Z,1011.03
2018-12-06T03:12:09.224Z,1011.03
2018-12-06T03:14:09.181Z,1010.98
2018-12-06T03:15:09.146Z,1010.97
2018-12-06T03:16:09.312Z,1010.96
2018-12-06T03:17:09.279Z,1011.01
2018-12-06T03:18:09.049Z,1011.01
2018-12-06T03:19:09.001Z,1011.01
2018-12-06T03:20:08.983Z,1011.12
2018-12-06T03:21:08.944Z,1011.18
2018-12-06T03:22:09.114Z,1011.20
2018-12-06T03:23:08.879Z,1011.24
2018-12-06T03:24:08.848Z,1011.25
2018-12-06T03:25:09.017Z,1011.32
2018-12-06T03:26:08.772Z,1011.30
2018-12-06T03:28:08.721Z,1011.34
2018-12-06T03:31:08.624Z,1011.37
2018-12-06T03:32:08.578Z,1011.26
2018-12-06T03:33:08.557Z,1011.32
2018-12-06T03:34:08.530Z,1011.32
2018-12-06T03:35:08.496Z,1011.36
2018-12-06T03:36:08.656Z,1011.44
2018-12-06T03:37:08.414Z,1011.43
2018-12-06T03:38:08.401Z,1011.39
2018-12-06T03:39:08.362Z,1011.39
2018-12-06T03:40:08.316Z,1011.44
2018-12-06T03:41:08.287Z,1011.41
2018-12-06T03:42:08.274Z,1011.44
2018-12-06T03:43:08.442Z,1011.48
2018-12-06T03:44:08.199Z,1011.47
2018-12-06T03:45:08.165Z,1011.47
2018-12-06T03:46:08.137Z,1011.43
2018-12-06T03:47:08.312Z,1011.44
2018-12-06T03:48:08.378Z,1011.46
2018-12-06T03:49:08.059Z,1011.41
2018-12-06T03:50:08.005Z,1011.46
2018-12-06T03:51:08.179Z,1011.39
2018-12-06T03:52:07.944Z,1011.38
2018-12-06T03:53:07.901Z,1011.47
2018-12-06T03:54:08.183Z,1011.43
2018-12-06T03:55:07.845Z,1011.44
2018-12-06T03:56:07.819Z,1011.43
2018-12-06T03:57:07.782Z,1011.47
2018-12-06T03:58:08.160Z,1011.52
2018-12-06T03:59:07.723Z,1011.51
2018-12-06T04:00:07.695Z,1011.52
2018-12-06T04:01:07.640Z,1011.55
2018-12-06T04:02:07.623Z,1011.58
2018-12-06T04:03:07.594Z,1011.62
2018-12-06T04:04:07.556Z,1011.60
2018-12-06T04:05:07.528Z,1011.60
2018-12-06T04:06:07.478Z,1011.54
2018-12-06T04:07:07.462Z,1011.59
2018-12-06T04:08:07.428Z,1011.63
2018-12-06T04:09:07.383Z,1011.61
2018-12-06T04:10:07.568Z,1011.62
2018-12-06T04:11:07.637Z,1011.63
2018-12-06T04:12:07.488Z,1011.50
2018-12-06T04:13:07.571Z,1011.58
2018-12-06T04:14:07.436Z,1011.52
2018-12-06T04:15:07.191Z,1011.53
2018-12-06T04:16:07.168Z,1011.52
2018-12-06T04:17:07.137Z,1011.51
2018-12-06T04:18:07.417Z,1011.44
2018-12-06T04:19:07.078Z,1011.49
2018-12-06T04:20:07.028Z,1011.48
2018-12-06T04:21:07.314Z,1011.46
2018-12-06T04:22:06.963Z,1011.48
2018-12-06T04:23:06.943Z,1011.50
2018-12-06T04:24:07.215Z,1011.42
2018-12-06T04:25:06.879Z,1011.44
2018-12-06T04:26:06.848Z,1011.40
2018-12-06T04:27:06.802Z,1011.29
2018-12-06T04:28:06.770Z,1011.31
2018-12-06T04:29:06.753Z,1011.43
2018-12-06T04:30:06.759Z,1011.43
2018-12-06T04:31:06.683Z,1011.30
2018-12-06T04:32:06.646Z,1011.42
2018-12-06T04:33:06.610Z,1011.39
2018-12-06T04:34:06.596Z,1011.37
2018-12-06T04:35:06.565Z,1011.39
2018-12-06T04:36:06.512Z,1011.31
2018-12-06T04:37:06.492Z,1011.34
2018-12-06T04:38:06.458Z,1011.24
2018-12-06T04:39:06.432Z,1011.34
2018-12-06T04:40:06.382Z,1011.30
2018-12-06T04:41:06.369Z,1011.35
2018-12-06T04:42:06.737Z,1011.37
2018-12-06T04:43:06.289Z,1011.38
2018-12-06T04:44:06.271Z,1011.37
2018-12-06T04:45:06.438Z,1011.37
2018-12-06T04:46:06.188Z,1011.30
2018-12-06T04:47:06.375Z,1011.31
2018-12-06T04:48:06.136Z,1011.31
2018-12-06T04:49:06.306Z,1011.29
2018-12-06T04:50:06.072Z,1011.31
2018-12-06T04:51:06.027Z,1011.34
2018-12-06T04:52:06.005Z,1011.32
2018-12-06T04:53:05.976Z,1011.37
2018-12-06T04:54:05.928Z,1011.28
2018-12-06T04:55:05.918Z,1011.29
2018-12-06T04:56:05.875Z,1011.25
2018-12-06T04:57:06.035Z,1011.27
2018-12-06T04:58:05.815Z,1011.25
2018-12-06T04:59:05.780Z,1011.20
2018-12-06T05:00:05.747Z,1011.21
2018-12-06T05:01:05.714Z,1011.17
2018-12-06T05:02:05.885Z,1011.14
2018-12-06T05:03:05.651Z,1011.11
2018-12-06T05:04:05.807Z,1011.16
2018-12-06T05:05:05.573Z,1011.09
2018-12-06T05:06:47.894Z,1011.02
2018-12-06T05:07:47.655Z,1011.03
2018-12-06T05:08:47.824Z,1010.99
2018-12-06T05:09:47.590Z,1010.89
2018-12-06T05:10:47.556Z,1010.81
2018-12-06T05:11:47.522Z,1010.82
2018-12-06T05:12:47.699Z,1010.95
2018-12-06T05:13:47.463Z,1010.83
2018-12-06T05:14:47.427Z,1010.65
2018-12-06T05:15:47.393Z,1010.70
2018-12-06T05:16:47.365Z,1010.62
2018-12-06T05:17:47.329Z,1010.63
2018-12-06T05:18:47.295Z,1010.55
2018-12-06T05:19:47.262Z,1010.48
2018-12-06T05:20:47.240Z,1010.55
2018-12-06T05:21:47.201Z,1010.70
2018-12-06T05:22:47.169Z,1010.63
2018-12-06T05:23:47.136Z,1010.66
2018-12-06T05:24:47.100Z,1010.71
2018-12-06T05:25:47.085Z,1010.68
2018-12-06T05:26:47.037Z,1010.69
2018-12-06T05:27:47.005Z,1010.55
2018-12-06T05:28:46.972Z,1010.53
2018-12-06T05:29:46.939Z,1010.56
2018-12-06T05:30:46.907Z,1010.54
2018-12-06T05:31:46.875Z,1010.52
2018-12-06T05:32:46.841Z,1010.48
2018-12-06T05:33:46.814Z,1010.56
2018-12-06T05:34:46.777Z,1010.50
2018-12-06T05:35:46.744Z,1010.49
2018-12-06T05:36:46.713Z,1010.47
2018-12-06T05:37:46.679Z,1010.46
2018-12-06T05:38:46.649Z,1010.41
2018-12-06T05:39:46.615Z,1010.44
2018-12-06T05:40:46.582Z,1010.38
2018-12-06T05:41:46.552Z,1010.41
2018-12-06T05:42:46.518Z,1010.34
2018-12-06T05:43:46.489Z,1010.29
2018-12-06T05:44:46.459Z,1010.20
2018-12-06T05:45:46.426Z,1010.20
2018-12-06T05:46:46.390Z,1010.19
2018-12-06T05:47:46.357Z,1010.19
2018-12-06T05:48:46.327Z,1010.20
2018-12-06T05:49:46.293Z,1010.20
2018-12-06T05:50:46.260Z,1010.24
2018-12-06T05:51:46.227Z,1010.37
2018-12-06T05:52:46.197Z,1010.40
2018-12-06T05:53:46.163Z,1010.39
2018-12-06T05:54:46.133Z,1010.47
2018-12-06T05:55:46.105Z,1010.48
2018-12-06T05:56:46.073Z,1010.51
2018-12-06T05:57:46.036Z,1010.48
2018-12-06T05:58:46.006Z,1010.53
2018-12-06T05:59:45.969Z,1010.60
2018-12-06T06:00:45.949Z,1010.57
2018-12-06T06:01:45.954Z,1010.62
2018-12-06T06:02:45.884Z,1010.68
2018-12-06T06:03:45.886Z,1010.71
2018-12-06T06:04:45.809Z,1010.80
2018-12-06T06:05:45.778Z,1010.78
2018-12-06T06:06:45.745Z,1010.82
2018-12-06T06:07:45.717Z,1010.85
2018-12-06T06:08:45.681Z,1010.87
2018-12-06T06:09:45.650Z,1010.92
2018-12-06T06:10:45.616Z,1010.89
2018-12-06T06:11:45.584Z,1010.90
2018-12-06T06:12:45.553Z,1010.91
2018-12-06T06:13:45.523Z,1010.88
2018-12-06T06:14:45.491Z,1010.88
2018-12-06T06:15:45.458Z,1010.90
2018-12-06T06:16:45.423Z,1010.90
2018-12-06T06:17:45.395Z,1010.84
2018-12-06T06:18:45.359Z,1010.82
2018-12-06T06:19:45.327Z,1010.78
2018-12-06T06:20:45.296Z,1010.80
2018-12-06T06:21:45.265Z,1010.79
2018-12-06T06:22:45.232Z,1010.83
2018-12-06T06:23:45.282Z,1010.83
2018-12-06T06:24:45.166Z,1010.84
2018-12-06T06:25:45.136Z,1010.81
2018-12-06T06:26:45.103Z,1010.82
2018-12-06T06:27:45.070Z,1010.84
2018-12-06T06:28:45.040Z,1010.85
2018-12-06T06:29:45.006Z,1010.84
2018-12-06T06:30:44.978Z,1010.87
2018-12-06T06:31:44.943Z,1010.83
2018-12-06T06:32:44.912Z,1010.87
2018-12-06T06:33:44.879Z,1010.90
2018-12-06T06:34:44.850Z,1010.87
2018-12-06T06:35:44.818Z,1010.87
2018-12-06T06:36:44.784Z,1010.87
2018-12-06T06:37:44.751Z,1010.86
2018-12-06T06:38:44.720Z,1010.85
2018-12-06T06:39:44.687Z,1010.88
2018-12-06T06:40:44.655Z,1010.88
2018-12-06T06:41:44.624Z,1010.91
2018-12-06T06:42:44.607Z,1010.94
2018-12-06T06:43:44.559Z,1010.96
2018-12-06T06:44:44.528Z,1011.00
2018-12-06T06:45:44.496Z,1011.00
2018-12-06T06:46:44.466Z,1011.01
2018-12-06T06:47:44.432Z,1011.03
2018-12-06T06:48:44.400Z,1011.02
2018-12-06T06:49:44.370Z,1011.03
2018-12-06T06:50:44.337Z,1011.08
2018-12-06T06:51:44.305Z,1011.11
2018-12-06T06:52:44.273Z,1011.11
2018-12-06T06:53:44.251Z,1011.09
2018-12-06T06:54:44.211Z,1011.13
2018-12-06T06:55:44.181Z,1011.14
2018-12-06T06:56:44.146Z,1011.17
2018-12-06T06:57:44.116Z,1011.19
2018-12-06T06:58:44.083Z,1011.24
2018-12-06T06:59:44.050Z,1011.18
2018-12-06T07:00:44.036Z,1011.23
2018-12-06T07:01:43.991Z,1011.24
2018-12-06T07:02:43.959Z,1011.22
2018-12-06T07:03:43.924Z,1011.21
2018-12-06T07:04:43.896Z,1011.26
2018-12-06T07:05:43.862Z,1011.24
2018-12-06T07:06:43.829Z,1011.28
2018-12-06T07:07:43.852Z,1011.31
2018-12-06T07:08:43.767Z,1011.29
2018-12-06T07:09:43.738Z,1011.31
2018-12-06T07:10:43.704Z,1011.32
2018-12-06T07:11:43.676Z,1011.34
2018-12-06T07:12:43.642Z,1011.29
2018-12-06T07:13:43.613Z,1011.34
2018-12-06T07:14:43.578Z,1011.35
2018-12-06T07:15:43.547Z,1011.35
2018-12-06T07:16:43.512Z,1011.39
2018-12-06T07:17:43.483Z,1011.48
2018-12-06T07:18:43.449Z,1011.48
2018-12-06T07:19:43.417Z,1011.51
2018-12-06T07:20:43.389Z,1011.54
2018-12-06T07:21:43.356Z,1011.55
2018-12-06T07:22:43.323Z,1011.55
2018-12-06T07:23:43.302Z,1011.55
2018-12-06T07:24:43.265Z,1011.54
2018-12-06T07:25:46.485Z,1011.55
2018-12-06T07:26:43.263Z,1011.53
2018-12-06T07:27:43.164Z,1011.53
2018-12-06T07:28:43.134Z,1011.58
2018-12-06T07:29:43.106Z,1011.54
2018-12-06T07:30:43.071Z,1011.55
2018-12-06T07:31:43.043Z,1011.58
2018-12-06T07:32:43.010Z,1011.56
2018-12-06T07:33:42.975Z,1011.54
2018-12-06T07:34:42.946Z,1011.54
2018-12-06T07:35:42.926Z,1011.55
2018-12-06T07:36:42.880Z,1011.53
2018-12-06T07:37:42.849Z,1011.55
2018-12-06T07:38:42.818Z,1011.55
2018-12-06T07:39:42.786Z,1011.57
2018-12-06T07:40:42.755Z,1011.55
2018-12-06T07:41:42.725Z,1011.56
2018-12-06T07:42:42.692Z,1011.53
2018-12-06T07:43:42.659Z,1011.57
2018-12-06T07:44:42.630Z,1011.52
2018-12-06T07:45:42.596Z,1011.55
2018-12-06T07:46:42.567Z,1011.58
2018-12-06T07:47:42.534Z,1011.59
2018-12-06T07:48:42.502Z,1011.61
2018-12-06T07:49:42.471Z,1011.61
2018-12-06T07:50:42.441Z,1011.65
2018-12-06T07:51:42.409Z,1011.61
2018-12-06T07:52:42.381Z,1011.63
2018-12-06T07:53:42.345Z,1011.64
2018-12-06T07:54:42.321Z,1011.65
2018-12-06T07:55:42.282Z,1011.61
2018-12-06T07:56:42.251Z,1011.64
2018-12-06T07:57:42.218Z,1011.62
2018-12-06T07:58:42.190Z,1011.59
2018-12-06T07:59:42.161Z,1011.58
2018-12-06T08:00:42.123Z,1011.55
2018-12-06T08:01:42.092Z,1011.57
2018-12-06T08:02:42.061Z,1011.52
2018-12-06T08:03:42.031Z,1011.53
2018-12-06T08:04:42.000Z,1011.52
2018-12-06T08:05:41.968Z,1011.52
2018-12-06T08:06:41.935Z,1011.55
2018-12-06T08:07:41.905Z,1011.52
2018-12-06T08:08:41.873Z,1011.51
2018-12-06T08:09:41.841Z,1011.48
2018-12-06T08:10:41.808Z,1011.46
2018-12-06T08:11:41.776Z,1011.39
2018-12-06T08:12:41.744Z,1011.35
2018-12-06T08:13:41.715Z,1011.37
2018-12-06T08:14:41.684Z,1011.27
2018-12-06T08:15:41.648Z,1011.31
2018-12-06T08:16:41.625Z,1011.29
2018-12-06T08:17:41.591Z,1011.33
2018-12-06T08:18:41.560Z,1011.31
2018-12-06T08:19:41.524Z,1011.29
2018-12-06T08:20:41.495Z,1011.25
2018-12-06T08:21:41.465Z,1011.22
2018-12-06T08:22:41.523Z,1011.19
2018-12-06T08:23:41.399Z,1011.14
2018-12-06T08:24:41.366Z,1011.03
2018-12-06T08:25:41.340Z,1010.92
2018-12-06T08:26:41.306Z,1010.83
2018-12-06T08:27:41.371Z,1010.75
2018-12-06T08:28:41.245Z,1010.68
2018-12-06T08:29:41.208Z,1010.71
2018-12-06T08:30:42.180Z,1010.56
2018-12-06T08:31:41.145Z,1010.52
2018-12-06T08:32:41.117Z,1010.54
2018-12-06T08:33:41.087Z,1010.60
2018-12-06T08:34:41.051Z,1010.63
2018-12-06T08:35:41.020Z,1010.75
2018-12-06T08:36:40.986Z,1010.81
2018-12-06T08:37:40.962Z,1010.86
2018-12-06T08:38:40.924Z,1010.82
2018-12-06T08:39:40.894Z,1010.91
2018-12-06T08:40:40.861Z,1010.80
2018-12-06T08:41:40.829Z,1010.84
2018-12-06T08:42:45.587Z,1010.93
2018-12-06T08:43:40.766Z,1010.95
2018-12-06T08:44:40.735Z,1011.01
2018-12-06T08:45:40.705Z,1011.02
2018-12-06T08:46:40.675Z,1011.10
2018-12-06T08:47:40.639Z,1011.13
2018-12-06T08:48:40.612Z,1011.27
2018-12-06T08:49:40.580Z,1011.34
2018-12-06T08:50:40.545Z,1011.47
2018-12-06T08:51:40.513Z,1011.45
2018-12-06T08:52:40.483Z,1011.47
2018-12-06T08:53:40.451Z,1011.51
2018-12-06T08:54:40.424Z,1011.60
2018-12-06T08:55:40.391Z,1011.46
2018-12-06T08:56:40.367Z,1011.42
2018-12-06T08:57:40.325Z,1011.38
2018-12-06T08:58:40.298Z,1011.44
2018-12-06T08:59:40.262Z,1011.44
2018-12-06T09:00:40.231Z,1011.44
2018-12-06T09:01:40.200Z,1011.43
2018-12-06T09:02:40.171Z,1011.50
2018-12-06T09:03:40.140Z,1011.47
2018-12-06T09:04:40.107Z,1011.47
2018-12-06T09:05:40.084Z,1011.50
2018-12-06T09:06:40.051Z,1011.45
2018-12-06T09:07:40.012Z,1011.46
2018-12-06T09:08:39.984Z,1011.41
2018-12-06T09:09:39.951Z,1011.40
2018-12-06T09:10:40.732Z,1011.35
2018-12-06T09:11:39.889Z,1011.32
2018-12-06T09:12:39.860Z,1011.30
2018-12-06T09:13:39.834Z,1011.33
2018-12-06T09:14:39.797Z,1011.26
2018-12-06T09:15:39.764Z,1011.22
2018-12-06T09:16:39.733Z,1011.17
2018-12-06T09:17:39.709Z,1011.13
2018-12-06T09:18:39.684Z,1011.11
2018-12-06T09:19:39.646Z,1011.10
2018-12-06T09:20:39.607Z,1011.11
2018-12-06T09:21:39.610Z,1011.09
2018-12-06T09:22:39.546Z,1011.09
2018-12-06T09:23:39.523Z,1011.07
2018-12-06T09:24:39.485Z,1011.09
2018-12-06T09:25:39.455Z,1011.10
2018-12-06T09:26:39.434Z,1011.09
2018-12-06T09:27:39.394Z,1011.06
2018-12-06T09:28:39.367Z,1011.00
2018-12-06T09:29:39.331Z,1010.95
2018-12-06T09:30:39.302Z,1010.91
2018-12-06T09:31:39.278Z,1010.91
2018-12-06T09:32:39.238Z,1010.87
2018-12-06T09:33:39.209Z,1010.87
2018-12-06T09:34:39.179Z,1010.75
2018-12-06T09:35:40.663Z,1010.73
2018-12-06T09:36:39.113Z,1010.68
2018-12-06T09:37:39.088Z,1010.75
2018-12-06T09:38:39.052Z,1010.73
2018-12-06T09:39:39.020Z,1010.65
2018-12-06T09:40:38.990Z,1010.73
2018-12-06T09:41:38.959Z,1010.69
2018-12-06T09:42:38.930Z,1010.68
2018-12-06T09:43:38.899Z,1010.63
2018-12-06T09:44:38.867Z,1010.56
2018-12-06T09:45:38.844Z,1010.54
2018-12-06T09:46:38.806Z,1010.61
2018-12-06T09:47:38.774Z,1010.56
2018-12-06T09:48:38.748Z,1010.65
2018-12-06T09:49:38.718Z,1010.63
2018-12-06T09:50:38.702Z,1010.65
2018-12-06T09:51:38.655Z,1010.66
2018-12-06T09:52:38.632Z,1010.62
2018-12-06T09:53:38.593Z,1010.59
2018-12-06T09:54:38.562Z,1010.61
2018-12-06T09:55:38.529Z,1010.64
2018-12-06T09:56:38.511Z,1010.59
2018-12-06T09:57:38.471Z,1010.60
2018-12-06T09:58:38.446Z,1010.62
2018-12-06T09:59:38.421Z,1010.65
2018-12-06T10:00:38.377Z,1010.64
2018-12-06T10:01:38.348Z,1010.65
2018-12-06T10:02:38.317Z,1010.64
2018-12-06T10:03:38.284Z,1010.67
2018-12-06T10:04:38.255Z,1010.63
2018-12-06T10:05:38.224Z,1010.61
2018-12-06T10:06:38.197Z,1010.57
2018-12-06T10:07:38.164Z,1010.63
2018-12-06T10:08:38.133Z,1010.61
2018-12-06T10:09:38.104Z,1010.59
2018-12-06T10:10:38.073Z,1010.67
2018-12-06T10:11:38.042Z,1010.74
2018-12-06T10:12:38.038Z,1010.80
2018-12-06T10:13:37.981Z,1010.85
2018-12-06T10:14:37.965Z,1010.86
2018-12-06T10:15:37.934Z,1010.87
2018-12-06T10:16:37.894Z,1010.87
2018-12-06T10:17:37.861Z,1010.91
2018-12-06T10:18:37.833Z,1010.95
2018-12-06T10:19:37.800Z,1010.96
2018-12-06T10:20:37.770Z,1010.94
2018-12-06T10:21:37.739Z,1010.98
2018-12-06T10:22:37.713Z,1010.99
2018-12-06T10:23:39.289Z,1011.02
2018-12-06T10:24:37.648Z,1011.03
2018-12-06T10:25:37.622Z,1011.03
2018-12-06T10:26:37.589Z,1011.03
2018-12-06T10:27:37.558Z,1011.12
2018-12-06T10:28:37.533Z,1011.08
2018-12-06T10:29:37.505Z,1011.09
2018-12-06T10:30:37.469Z,1011.12
2018-12-06T10:31:37.436Z,1011.10
2018-12-06T10:32:37.407Z,1011.11
2018-12-06T10:33:37.376Z,1011.09
2018-12-06T10:34:37.348Z,1011.07
2018-12-06T10:35:37.318Z,1011.04
2018-12-06T10:36:37.284Z,1011.06
2018-12-06T10:37:37.267Z,1011.00
2018-12-06T10:38:37.229Z,1010.99
2018-12-06T10:39:37.197Z,1011.02
2018-12-06T10:40:37.171Z,1010.99
2018-12-06T10:41:37.137Z,1010.98
2018-12-06T10:42:37.106Z,1010.91
2018-12-06T10:43:37.077Z,1010.89
2018-12-06T10:44:37.044Z,1010.84
2018-12-06T10:45:37.015Z,1010.81
2018-12-06T10:46:36.986Z,1010.79
2018-12-06T10:47:36.953Z,1010.71
2018-12-06T10:48:36.924Z,1010.70
2018-12-06T10:49:36.894Z,1010.66
2018-12-06T10:50:36.865Z,1010.62
2018-12-06T10:51:36.835Z,1010.60
2018-12-06T10:52:36.804Z,1010.56
2018-12-06T10:53:36.775Z,1010.56
2018-12-06T10:54:36.745Z,1010.49
2018-12-06T10:55:36.713Z,1010.41
2018-12-06T10:56:36.696Z,1010.28
2018-12-06T10:57:36.655Z,1010.19
2018-12-06T10:58:36.626Z,1010.17
2018-12-06T10:59:36.597Z,1010.15
2018-12-06T11:00:36.564Z,1010.06
2018-12-06T11:01:36.539Z,1010.03
2018-12-06T11:02:36.707Z,1009.97
2018-12-06T11:03:36.483Z,1009.98
2018-12-06T11:04:36.460Z,1010.02
2018-12-06T11:05:36.414Z,1010.05
2018-12-06T11:06:36.387Z,1010.12
2018-12-06T11:07:36.356Z,1010.15
2018-12-06T11:08:36.325Z,1010.16
2018-12-06T11:09:36.304Z,1010.14
2018-12-06T11:10:36.266Z,1010.18
2018-12-06T11:11:36.236Z,1010.18
2018-12-06T11:12:36.207Z,1010.14
2018-12-06T11:13:36.176Z,1010.08
2018-12-06T11:14:36.154Z,1010.13
2018-12-06T11:15:36.149Z,1010.09
2018-12-06T11:16:36.086Z,1010.09
2018-12-06T11:17:36.058Z,1010.10
2018-12-06T11:18:36.046Z,1010.11
2018-12-06T11:19:36.001Z,1010.16
2018-12-06T11:20:35.972Z,1010.13
2018-12-06T11:21:35.940Z,1010.10
2018-12-06T11:22:35.911Z,1010.17
2018-12-06T11:23:35.879Z,1010.13
2018-12-06T11:24:35.848Z,1010.15
2018-12-06T11:25:35.820Z,1010.13
2018-12-06T11:26:35.789Z,1010.12
2018-12-06T11:27:35.758Z,1010.15
2018-12-06T11:28:35.737Z,1010.09
2018-12-06T11:29:35.705Z,1010.13
2018-12-06T11:30:35.687Z,1010.19
2018-12-06T11:31:35.644Z,1010.21
2018-12-06T11:32:35.613Z,1010.14
2018-12-06T11:33:35.581Z,1010.14
2018-12-06T11:34:35.552Z,1010.10
2018-12-06T11:35:35.522Z,1010.16
2018-12-06T11:36:35.492Z,1010.16
2018-12-06T11:37:35.465Z,1010.25
2018-12-06T11:38:35.433Z,1010.25
2018-12-06T11:39:35.402Z,1010.20
2018-12-06T11:40:35.374Z,1010.13
2018-12-06T11:41:42.772Z,1010.05
2018-12-06T11:42:35.316Z,1010.13
2018-12-06T11:43:35.285Z,1010.11
2018-12-06T11:44:35.254Z,1010.09
2018-12-06T11:45:35.230Z,1010.09
2018-12-06T11:46:35.205Z,1010.17
2018-12-06T11:47:35.165Z,1010.14
2018-12-06T11:48:35.139Z,1010.30
2018-12-06T11:49:35.122Z,1010.28
2018-12-06T11:50:35.116Z,1010.33
2018-12-06T11:51:35.048Z,1010.29
2018-12-06T11:52:35.018Z,1010.26
2018-12-06T11:53:34.990Z,1010.21
2018-12-06T11:54:34.959Z,1010.31
2018-12-06T11:55:34.932Z,1010.30
2018-12-06T11:56:34.904Z,1010.36
2018-12-06T11:57:34.872Z,1010.39
2018-12-06T11:58:34.841Z,1010.42
2018-12-06T11:59:34.814Z,1010.41
2018-12-06T12:00:34.782Z,1010.48
2018-12-06T12:01:34.774Z,1010.61
2018-12-06T12:02:34.722Z,1010.49
2018-12-06T12:03:34.692Z,1010.54
2018-12-06T12:04:34.664Z,1010.58
2018-12-06T12:05:34.633Z,1010.62
2018-12-06T12:06:34.606Z,1010.57
2018-12-06T12:07:34.580Z,1010.53
2018-12-06T12:08:34.545Z,1010.54
2018-12-06T12:09:34.519Z,1010.52
2018-12-06T12:10:34.486Z,1010.52
2018-12-06T12:11:34.455Z,1010.44
2018-12-06T12:12:34.429Z,1010.43
2018-12-06T12:13:34.400Z,1010.41
2018-12-06T12:14:34.370Z,1010.45
2018-12-06T12:15:34.340Z,1010.13
2018-12-06T12:16:34.310Z,1010.69
2018-12-06T12:17:34.280Z,1010.41
2018-12-06T12:18:34.248Z,1010.46
2018-12-06T12:19:34.218Z,1010.47
2018-12-06T12:20:34.190Z,1010.51
2018-12-06T12:21:34.166Z,1010.54